sensor_id;sensor_type;location;lat;lon;timestamp;temperature;humidity
8313;DHT22;4194;43.408;24.626;2024-03-22T00:00:08;6.20;99.90
8313;DHT22;4194;43.408;24.626;2024-03-22T00:02:37;6.00;99.90
8313;DHT22;4194;43.408;24.626;2024-03-22T00:05:03;6.10;99.90
8313;DHT22;4194;43.408;24.626;2024-03-22T00:07:29;5.90;99.90
8313;DHT22;4194;43.408;24.626;2024-03-22T00:09:55;5.80;99.90
8313;DHT22;4194;43.408;24.626;2024-03-22T00:12:20;5.90;99.90
8313;DHT22;4194;43.408;24.626;2024-03-22T00:14:46;5.60;99.90
8313;DHT22;4194;43.408;24.626;2024-03-22T00:17:12;5.90;99.90
8313;DHT22;4194;43.408;24.626;2024-03-22T00:19:37;5.90;99.90
8313;DHT22;4194;43.408;24.626;2024-03-22T00:22:03;6.00;99.90
8313;DHT22;4194;43.408;24.626;2024-03-22T00:24:29;6.10;99.90
8313;DHT22;4194;43.408;24.626;2024-03-22T00:26:55;5.90;99.90
8313;DHT22;4194;43.408;24.626;2024-03-22T00:29:20;5.90;99.90
8313;DHT22;4194;43.408;24.626;2024-03-22T00:31:46;5.90;99.90
8313;DHT22;4194;43.408;24.626;2024-03-22T00:34:12;5.90;99.90
8313;DHT22;4194;43.408;24.626;2024-03-22T00:36:37;5.80;99.90
8313;DHT22;4194;43.408;24.626;2024-03-22T00:39:03;5.80;99.90
8313;DHT22;4194;43.408;24.626;2024-03-22T00:41:29;5.80;99.90
8313;DHT22;4194;43.408;24.626;2024-03-22T00:43:54;5.80;99.90
8313;DHT22;4194;43.408;24.626;2024-03-22T00:46:20;5.70;99.90
8313;DHT22;4194;43.408;24.626;2024-03-22T00:48:46;5.70;99.90
8313;DHT22;4194;43.408;24.626;2024-03-22T00:51:12;5.70;99.90
8313;DHT22;4194;43.408;24.626;2024-03-22T00:53:37;5.70;99.90
8313;DHT22;4194;43.408;24.626;2024-03-22T00:56:03;5.70;99.90
8313;DHT22;4194;43.408;24.626;2024-03-22T00:58:29;5.70;99.90
8313;DHT22;4194;43.408;24.626;2024-03-22T01:00:55;5.40;99.90
8313;DHT22;4194;43.408;24.626;2024-03-22T01:03:21;5.70;99.90
8313;DHT22;4194;43.408;24.626;2024-03-22T01:05:47;5.70;99.90
8313;DHT22;4194;43.408;24.626;2024-03-22T01:08:13;5.80;99.90
8313;DHT22;4194;43.408;24.626;2024-03-22T01:10:39;5.70;99.90
8313;DHT22;4194;43.408;24.626;2024-03-22T01:13:05;5.70;99.90
8313;DHT22;4194;43.408;24.626;2024-03-22T01:15:31;5.60;99.90
8313;DHT22;4194;43.408;24.626;2024-03-22T01:17:57;5.60;99.90
8313;DHT22;4194;43.408;24.626;2024-03-22T01:20:23;5.70;99.90
8313;DHT22;4194;43.408;24.626;2024-03-22T01:22:49;5.60;99.90
8313;DHT22;4194;43.408;24.626;2024-03-22T01:25:15;5.60;99.90
8313;DHT22;4194;43.408;24.626;2024-03-22T01:27:41;5.50;99.90
8313;DHT22;4194;43.408;24.626;2024-03-22T01:30:06;5.40;99.90
8313;DHT22;4194;43.408;24.626;2024-03-22T01:32:34;5.50;99.90
8313;DHT22;4194;43.408;24.626;2024-03-22T01:35:00;5.50;99.90
8313;DHT22;4194;43.408;24.626;2024-03-22T01:37:26;5.10;99.90
8313;DHT22;4194;43.408;24.626;2024-03-22T01:39:51;5.40;99.90
8313;DHT22;4194;43.408;24.626;2024-03-22T01:42:17;5.40;99.90
8313;DHT22;4194;43.408;24.626;2024-03-22T01:44:43;5.40;99.90
8313;DHT22;4194;43.408;24.626;2024-03-22T01:47:09;5.40;99.90
8313;DHT22;4194;43.408;24.626;2024-03-22T01:49:35;5.40;99.90
8313;DHT22;4194;43.408;24.626;2024-03-22T01:52:01;5.40;99.90
8313;DHT22;4194;43.408;24.626;2024-03-22T01:54:27;5.20;99.90
8313;DHT22;4194;43.408;24.626;2024-03-22T01:56:52;5.40;99.90
8313;DHT22;4194;43.408;24.626;2024-03-22T01:59:19;5.40;99.90
8313;DHT22;4194;43.408;24.626;2024-03-22T02:01:45;5.40;99.90
8313;DHT22;4194;43.408;24.626;2024-03-22T02:04:11;5.10;99.90
8313;DHT22;4194;43.408;24.626;2024-03-22T02:06:36;5.90;99.90
8313;DHT22;4194;43.408;24.626;2024-03-22T02:09:02;5.30;99.90
8313;DHT22;4194;43.408;24.626;2024-03-22T02:11:31;5.20;99.90
8313;DHT22;4194;43.408;24.626;2024-03-22T02:13:57;5.30;99.90
8313;DHT22;4194;43.408;24.626;2024-03-22T02:16:23;5.20;99.90
8313;DHT22;4194;43.408;24.626;2024-03-22T02:18:49;5.20;99.90
8313;DHT22;4194;43.408;24.626;2024-03-22T02:21:15;5.10;99.90
8313;DHT22;4194;43.408;24.626;2024-03-22T02:23:41;5.10;99.90
8313;DHT22;4194;43.408;24.626;2024-03-22T02:26:07;5.30;99.90
8313;DHT22;4194;43.408;24.626;2024-03-22T02:28:34;5.00;99.90
8313;DHT22;4194;43.408;24.626;2024-03-22T02:31:02;5.20;99.90
8313;DHT22;4194;43.408;24.626;2024-03-22T02:33:28;5.00;99.90
8313;DHT22;4194;43.408;24.626;2024-03-22T02:35:53;5.00;99.90
8313;DHT22;4194;43.408;24.626;2024-03-22T02:38:19;5.00;99.90
8313;DHT22;4194;43.408;24.626;2024-03-22T02:40:48;5.00;99.90
8313;DHT22;4194;43.408;24.626;2024-03-22T02:43:14;4.90;99.90
8313;DHT22;4194;43.408;24.626;2024-03-22T02:45:40;4.90;99.90
8313;DHT22;4194;43.408;24.626;2024-03-22T02:48:06;4.90;99.90
8313;DHT22;4194;43.408;24.626;2024-03-22T02:50:36;4.90;99.90
8313;DHT22;4194;43.408;24.626;2024-03-22T02:53:03;5.00;99.90
8313;DHT22;4194;43.408;24.626;2024-03-22T02:55:28;4.90;99.90
8313;DHT22;4194;43.408;24.626;2024-03-22T02:57:56;4.80;99.90
8313;DHT22;4194;43.408;24.626;2024-03-22T03:00:22;4.70;99.90
8313;DHT22;4194;43.408;24.626;2024-03-22T03:02:48;5.00;99.90
8313;DHT22;4194;43.408;24.626;2024-03-22T03:05:14;4.80;99.90
8313;DHT22;4194;43.408;24.626;2024-03-22T03:07:40;4.90;99.90
8313;DHT22;4194;43.408;24.626;2024-03-22T03:10:06;4.90;99.90
8313;DHT22;4194;43.408;24.626;2024-03-22T03:12:32;4.90;99.90
8313;DHT22;4194;43.408;24.626;2024-03-22T03:14:58;5.00;99.90
8313;DHT22;4194;43.408;24.626;2024-03-22T03:17:24;5.00;99.90
8313;DHT22;4194;43.408;24.626;2024-03-22T03:19:49;4.90;99.90
8313;DHT22;4194;43.408;24.626;2024-03-22T03:22:15;4.90;99.90
8313;DHT22;4194;43.408;24.626;2024-03-22T03:24:41;5.10;99.90
8313;DHT22;4194;43.408;24.626;2024-03-22T03:27:06;4.90;99.90
8313;DHT22;4194;43.408;24.626;2024-03-22T03:29:32;4.80;99.90
8313;DHT22;4194;43.408;24.626;2024-03-22T03:31:58;4.80;99.90
8313;DHT22;4194;43.408;24.626;2024-03-22T03:34:24;4.70;99.90
8313;DHT22;4194;43.408;24.626;2024-03-22T03:36:49;4.70;99.90
8313;DHT22;4194;43.408;24.626;2024-03-22T03:39:15;4.70;99.90
8313;DHT22;4194;43.408;24.626;2024-03-22T03:41:41;4.70;99.90
8313;DHT22;4194;43.408;24.626;2024-03-22T03:44:07;4.70;99.90
8313;DHT22;4194;43.408;24.626;2024-03-22T03:46:32;4.60;99.90
8313;DHT22;4194;43.408;24.626;2024-03-22T03:48:58;4.80;99.90
8313;DHT22;4194;43.408;24.626;2024-03-22T03:51:24;4.70;99.90
8313;DHT22;4194;43.408;24.626;2024-03-22T03:53:49;4.70;99.90
8313;DHT22;4194;43.408;24.626;2024-03-22T03:56:15;4.60;99.90
8313;DHT22;4194;43.408;24.626;2024-03-22T03:58:41;4.70;99.90
8313;DHT22;4194;43.408;24.626;2024-03-22T04:01:07;4.60;99.90
8313;DHT22;4194;43.408;24.626;2024-03-22T04:03:33;4.50;99.90
8313;DHT22;4194;43.408;24.626;2024-03-22T04:05:59;4.60;99.90
8313;DHT22;4194;43.408;24.626;2024-03-22T04:08:26;4.40;99.90
8313;DHT22;4194;43.408;24.626;2024-03-22T04:10:54;4.40;99.90
8313;DHT22;4194;43.408;24.626;2024-03-22T04:13:25;4.40;99.90
8313;DHT22;4194;43.408;24.626;2024-03-22T04:15:52;4.50;99.90
8313;DHT22;4194;43.408;24.626;2024-03-22T04:18:17;4.30;99.90
8313;DHT22;4194;43.408;24.626;2024-03-22T04:20:53;4.40;99.90
8313;DHT22;4194;43.408;24.626;2024-03-22T04:23:20;4.20;99.90
8313;DHT22;4194;43.408;24.626;2024-03-22T04:25:59;4.10;99.90
8313;DHT22;4194;43.408;24.626;2024-03-22T04:28:25;4.00;99.90
8313;DHT22;4194;43.408;24.626;2024-03-22T04:31:05;4.30;99.90
8313;DHT22;4194;43.408;24.626;2024-03-22T04:33:32;3.90;99.90
8313;DHT22;4194;43.408;24.626;2024-03-22T04:35:58;3.90;99.90
8313;DHT22;4194;43.408;24.626;2024-03-22T04:38:28;3.70;99.90
8313;DHT22;4194;43.408;24.626;2024-03-22T04:40:55;3.90;99.90
8313;DHT22;4194;43.408;24.626;2024-03-22T04:43:24;3.70;99.90
8313;DHT22;4194;43.408;24.626;2024-03-22T04:45:50;3.80;99.90
8313;DHT22;4194;43.408;24.626;2024-03-22T04:48:18;4.00;99.90
8313;DHT22;4194;43.408;24.626;2024-03-22T04:50:45;3.80;99.90
8313;DHT22;4194;43.408;24.626;2024-03-22T04:53:12;4.10;99.90
8313;DHT22;4194;43.408;24.626;2024-03-22T04:55:38;4.00;99.90
8313;DHT22;4194;43.408;24.626;2024-03-22T04:58:04;4.20;99.90
8313;DHT22;4194;43.408;24.626;2024-03-22T05:00:30;4.30;99.90
8313;DHT22;4194;43.408;24.626;2024-03-22T05:02:55;4.30;99.90
8313;DHT22;4194;43.408;24.626;2024-03-22T05:05:21;4.00;99.90
8313;DHT22;4194;43.408;24.626;2024-03-22T05:07:47;3.90;99.90
8313;DHT22;4194;43.408;24.626;2024-03-22T05:10:13;3.80;99.90
8313;DHT22;4194;43.408;24.626;2024-03-22T05:12:39;3.90;99.90
8313;DHT22;4194;43.408;24.626;2024-03-22T05:15:06;3.90;99.90
8313;DHT22;4194;43.408;24.626;2024-03-22T05:17:32;4.20;99.90
8313;DHT22;4194;43.408;24.626;2024-03-22T05:19:59;4.30;99.90
8313;DHT22;4194;43.408;24.626;2024-03-22T05:22:24;4.10;99.90
8313;DHT22;4194;43.408;24.626;2024-03-22T05:24:50;4.30;99.90
8313;DHT22;4194;43.408;24.626;2024-03-22T05:27:17;4.40;99.90
8313;DHT22;4194;43.408;24.626;2024-03-22T05:29:43;4.70;99.90
8313;DHT22;4194;43.408;24.626;2024-03-22T05:32:08;4.60;99.90
8313;DHT22;4194;43.408;24.626;2024-03-22T05:34:34;4.60;99.90
8313;DHT22;4194;43.408;24.626;2024-03-22T05:37:01;4.80;99.90
8313;DHT22;4194;43.408;24.626;2024-03-22T05:39:27;4.80;99.90
8313;DHT22;4194;43.408;24.626;2024-03-22T05:41:52;5.00;99.90
8313;DHT22;4194;43.408;24.626;2024-03-22T05:44:22;5.00;99.90
8313;DHT22;4194;43.408;24.626;2024-03-22T05:46:48;5.10;99.90
8313;DHT22;4194;43.408;24.626;2024-03-22T05:49:14;5.20;99.90
8313;DHT22;4194;43.408;24.626;2024-03-22T05:51:39;5.30;99.90
8313;DHT22;4194;43.408;24.626;2024-03-22T05:54:05;5.50;99.90
8313;DHT22;4194;43.408;24.626;2024-03-22T05:56:32;5.60;99.90
8313;DHT22;4194;43.408;24.626;2024-03-22T05:58:57;6.10;99.90
8313;DHT22;4194;43.408;24.626;2024-03-22T06:01:23;6.10;99.90
8313;DHT22;4194;43.408;24.626;2024-03-22T06:03:49;6.00;99.90
8313;DHT22;4194;43.408;24.626;2024-03-22T06:06:14;6.50;99.90
8313;DHT22;4194;43.408;24.626;2024-03-22T06:08:41;6.30;99.50
8313;DHT22;4194;43.408;24.626;2024-03-22T06:11:09;6.40;98.80
8313;DHT22;4194;43.408;24.626;2024-03-22T06:13:34;6.20;98.00
8313;DHT22;4194;43.408;24.626;2024-03-22T06:16:02;6.40;97.40
8313;DHT22;4194;43.408;24.626;2024-03-22T06:18:27;6.90;96.50
8313;DHT22;4194;43.408;24.626;2024-03-22T06:20:53;7.10;95.70
8313;DHT22;4194;43.408;24.626;2024-03-22T06:23:21;7.10;95.40
8313;DHT22;4194;43.408;24.626;2024-03-22T06:25:54;7.30;95.00
8313;DHT22;4194;43.408;24.626;2024-03-22T06:28:19;7.50;94.80
8313;DHT22;4194;43.408;24.626;2024-03-22T06:30:45;7.70;94.00
8313;DHT22;4194;43.408;24.626;2024-03-22T06:33:11;7.70;93.20
8313;DHT22;4194;43.408;24.626;2024-03-22T06:35:37;8.10;93.00
8313;DHT22;4194;43.408;24.626;2024-03-22T06:38:03;7.90;91.20
8313;DHT22;4194;43.408;24.626;2024-03-22T06:40:29;8.40;90.00
8313;DHT22;4194;43.408;24.626;2024-03-22T06:42:55;8.50;89.40
8313;DHT22;4194;43.408;24.626;2024-03-22T06:45:21;8.70;88.40
8313;DHT22;4194;43.408;24.626;2024-03-22T06:47:47;8.90;87.00
8313;DHT22;4194;43.408;24.626;2024-03-22T06:50:13;9.00;85.80
8313;DHT22;4194;43.408;24.626;2024-03-22T06:52:38;9.00;83.00
8313;DHT22;4194;43.408;24.626;2024-03-22T06:55:05;9.10;81.70
8313;DHT22;4194;43.408;24.626;2024-03-22T06:57:31;9.10;81.10
8313;DHT22;4194;43.408;24.626;2024-03-22T06:59:59;9.20;82.50
8313;DHT22;4194;43.408;24.626;2024-03-22T07:02:25;9.40;81.70
8313;DHT22;4194;43.408;24.626;2024-03-22T07:04:51;9.60;80.60
8313;DHT22;4194;43.408;24.626;2024-03-22T07:07:18;9.60;79.70
8313;DHT22;4194;43.408;24.626;2024-03-22T07:09:44;10.10;78.50
8313;DHT22;4194;43.408;24.626;2024-03-22T07:12:09;10.10;77.20
8313;DHT22;4194;43.408;24.626;2024-03-22T07:14:35;10.00;75.70
8313;DHT22;4194;43.408;24.626;2024-03-22T07:17:01;10.10;74.90
8313;DHT22;4194;43.408;24.626;2024-03-22T07:19:26;10.10;74.70
8313;DHT22;4194;43.408;24.626;2024-03-22T07:21:54;10.60;74.00
8313;DHT22;4194;43.408;24.626;2024-03-22T07:24:19;10.50;73.20
8313;DHT22;4194;43.408;24.626;2024-03-22T07:26:45;10.40;73.20
8313;DHT22;4194;43.408;24.626;2024-03-22T07:29:11;10.60;72.80
8313;DHT22;4194;43.408;24.626;2024-03-22T07:31:37;10.80;70.80
8313;DHT22;4194;43.408;24.626;2024-03-22T07:34:03;10.80;70.10
8313;DHT22;4194;43.408;24.626;2024-03-22T07:36:30;10.80;68.00
8313;DHT22;4194;43.408;24.626;2024-03-22T07:38:56;10.90;69.40
8313;DHT22;4194;43.408;24.626;2024-03-22T07:41:23;11.10;71.10
8313;DHT22;4194;43.408;24.626;2024-03-22T07:43:49;11.60;69.60
8313;DHT22;4194;43.408;24.626;2024-03-22T07:46:15;11.50;68.90
8313;DHT22;4194;43.408;24.626;2024-03-22T07:48:40;11.50;66.60
8313;DHT22;4194;43.408;24.626;2024-03-22T07:51:06;11.80;66.90
8313;DHT22;4194;43.408;24.626;2024-03-22T07:53:32;11.90;66.90
8313;DHT22;4194;43.408;24.626;2024-03-22T07:55:58;11.80;65.20
8313;DHT22;4194;43.408;24.626;2024-03-22T07:58:25;11.90;66.20
8313;DHT22;4194;43.408;24.626;2024-03-22T08:00:51;12.10;66.00
8313;DHT22;4194;43.408;24.626;2024-03-22T08:03:17;12.40;64.70
8313;DHT22;4194;43.408;24.626;2024-03-22T08:05:43;12.40;64.10
8313;DHT22;4194;43.408;24.626;2024-03-22T08:08:09;12.80;65.00
8313;DHT22;4194;43.408;24.626;2024-03-22T08:10:34;12.70;63.90
8313;DHT22;4194;43.408;24.626;2024-03-22T08:13:00;12.70;63.10
8313;DHT22;4194;43.408;24.626;2024-03-22T08:15:29;13.30;63.50
8313;DHT22;4194;43.408;24.626;2024-03-22T08:17:55;13.10;62.70
8313;DHT22;4194;43.408;24.626;2024-03-22T08:20:25;13.50;62.00
8313;DHT22;4194;43.408;24.626;2024-03-22T08:22:51;13.50;62.10
8313;DHT22;4194;43.408;24.626;2024-03-22T08:25:16;13.70;61.30
8313;DHT22;4194;43.408;24.626;2024-03-22T08:27:44;13.80;60.70
8313;DHT22;4194;43.408;24.626;2024-03-22T08:30:10;14.00;61.70
8313;DHT22;4194;43.408;24.626;2024-03-22T08:32:36;14.20;60.20
8313;DHT22;4194;43.408;24.626;2024-03-22T08:35:02;14.40;59.80
8313;DHT22;4194;43.408;24.626;2024-03-22T08:37:30;14.20;60.80
8313;DHT22;4194;43.408;24.626;2024-03-22T08:39:55;14.30;59.70
8313;DHT22;4194;43.408;24.626;2024-03-22T08:42:21;14.70;62.40
8313;DHT22;4194;43.408;24.626;2024-03-22T08:44:47;14.00;60.50
8313;DHT22;4194;43.408;24.626;2024-03-22T08:47:12;14.10;59.80
8313;DHT22;4194;43.408;24.626;2024-03-22T08:49:39;14.00;59.30
8313;DHT22;4194;43.408;24.626;2024-03-22T08:52:05;14.40;59.10
8313;DHT22;4194;43.408;24.626;2024-03-22T08:54:30;14.00;58.30
8313;DHT22;4194;43.408;24.626;2024-03-22T08:56:56;13.80;60.30
8313;DHT22;4194;43.408;24.626;2024-03-22T08:59:22;13.90;59.10
8313;DHT22;4194;43.408;24.626;2024-03-22T09:01:50;14.10;59.10
8313;DHT22;4194;43.408;24.626;2024-03-22T09:04:16;14.20;58.80
8313;DHT22;4194;43.408;24.626;2024-03-22T09:06:41;14.70;58.70
8313;DHT22;4194;43.408;24.626;2024-03-22T09:09:07;15.30;59.00
8313;DHT22;4194;43.408;24.626;2024-03-22T09:11:33;15.30;58.00
8313;DHT22;4194;43.408;24.626;2024-03-22T09:13:59;15.40;57.40
8313;DHT22;4194;43.408;24.626;2024-03-22T09:16:25;15.40;56.30
8313;DHT22;4194;43.408;24.626;2024-03-22T09:18:50;15.40;56.80
8313;DHT22;4194;43.408;24.626;2024-03-22T09:21:16;15.00;56.80
8313;DHT22;4194;43.408;24.626;2024-03-22T09:23:42;14.90;57.90
8313;DHT22;4194;43.408;24.626;2024-03-22T09:26:08;15.00;57.40
8313;DHT22;4194;43.408;24.626;2024-03-22T09:28:33;15.50;56.80
8313;DHT22;4194;43.408;24.626;2024-03-22T09:31:08;14.90;57.70
8313;DHT22;4194;43.408;24.626;2024-03-22T09:33:34;14.70;57.70
8313;DHT22;4194;43.408;24.626;2024-03-22T09:36:00;14.60;57.70
8313;DHT22;4194;43.408;24.626;2024-03-22T09:38:26;15.10;56.90
8313;DHT22;4194;43.408;24.626;2024-03-22T09:40:51;15.60;57.70
8313;DHT22;4194;43.408;24.626;2024-03-22T09:43:21;15.80;56.80
8313;DHT22;4194;43.408;24.626;2024-03-22T09:45:48;16.00;56.10
8313;DHT22;4194;43.408;24.626;2024-03-22T09:48:19;15.90;56.70
8313;DHT22;4194;43.408;24.626;2024-03-22T09:50:48;15.40;56.20
8313;DHT22;4194;43.408;24.626;2024-03-22T09:53:18;15.30;56.00
8313;DHT22;4194;43.408;24.626;2024-03-22T09:55:46;15.10;56.50
8313;DHT22;4194;43.408;24.626;2024-03-22T09:58:12;14.70;57.40
8313;DHT22;4194;43.408;24.626;2024-03-22T10:00:38;15.20;57.20
8313;DHT22;4194;43.408;24.626;2024-03-22T10:03:04;15.50;56.40
8313;DHT22;4194;43.408;24.626;2024-03-22T10:05:31;15.50;55.70
8313;DHT22;4194;43.408;24.626;2024-03-22T10:07:56;16.20;55.60
8313;DHT22;4194;43.408;24.626;2024-03-22T10:10:22;16.70;54.10
8313;DHT22;4194;43.408;24.626;2024-03-22T10:12:48;16.70;53.50
8313;DHT22;4194;43.408;24.626;2024-03-22T10:15:14;17.30;52.90
8313;DHT22;4194;43.408;24.626;2024-03-22T10:17:42;17.50;52.20
8313;DHT22;4194;43.408;24.626;2024-03-22T10:20:08;18.10;52.20
8313;DHT22;4194;43.408;24.626;2024-03-22T10:22:42;17.80;50.10
8313;DHT22;4194;43.408;24.626;2024-03-22T10:25:09;17.50;52.00
8313;DHT22;4194;43.408;24.626;2024-03-22T10:27:38;16.70;51.80
8313;DHT22;4194;43.408;24.626;2024-03-22T10:30:07;16.60;51.60
8313;DHT22;4194;43.408;24.626;2024-03-22T10:32:33;16.30;53.60
8313;DHT22;4194;43.408;24.626;2024-03-22T10:35:04;16.40;54.40
8313;DHT22;4194;43.408;24.626;2024-03-22T10:37:32;16.60;53.50
8313;DHT22;4194;43.408;24.626;2024-03-22T10:40:01;16.80;52.80
8313;DHT22;4194;43.408;24.626;2024-03-22T10:42:37;16.70;52.40
8313;DHT22;4194;43.408;24.626;2024-03-22T10:45:04;16.80;52.20
8313;DHT22;4194;43.408;24.626;2024-03-22T10:47:31;17.20;52.50
8313;DHT22;4194;43.408;24.626;2024-03-22T10:50:03;17.90;51.50
8313;DHT22;4194;43.408;24.626;2024-03-22T10:52:33;18.10;50.40
8313;DHT22;4194;43.408;24.626;2024-03-22T10:55:00;17.40;51.50
8313;DHT22;4194;43.408;24.626;2024-03-22T10:57:27;17.10;53.00
8313;DHT22;4194;43.408;24.626;2024-03-22T10:59:54;17.40;53.70
8313;DHT22;4194;43.408;24.626;2024-03-22T11:02:23;17.90;52.90
8313;DHT22;4194;43.408;24.626;2024-03-22T11:04:58;18.30;51.60
8313;DHT22;4194;43.408;24.626;2024-03-22T11:07:29;19.00;51.60
8313;DHT22;4194;43.408;24.626;2024-03-22T11:10:00;19.80;50.50
8313;DHT22;4194;43.408;24.626;2024-03-22T11:12:26;20.60;49.60
8313;DHT22;4194;43.408;24.626;2024-03-22T11:14:54;21.30;47.60
8313;DHT22;4194;43.408;24.626;2024-03-22T11:17:20;21.50;47.50
8313;DHT22;4194;43.408;24.626;2024-03-22T11:19:50;21.50;47.40
8313;DHT22;4194;43.408;24.626;2024-03-22T11:22:17;21.50;47.10
8313;DHT22;4194;43.408;24.626;2024-03-22T11:24:43;21.90;46.60
8313;DHT22;4194;43.408;24.626;2024-03-22T11:27:10;22.00;46.10
8313;DHT22;4194;43.408;24.626;2024-03-22T11:29:37;21.60;44.60
8313;DHT22;4194;43.408;24.626;2024-03-22T11:32:10;21.70;45.70
8313;DHT22;4194;43.408;24.626;2024-03-22T11:34:37;21.80;44.50
8313;DHT22;4194;43.408;24.626;2024-03-22T11:37:04;22.00;46.00
8313;DHT22;4194;43.408;24.626;2024-03-22T11:39:30;22.30;44.20
8313;DHT22;4194;43.408;24.626;2024-03-22T11:41:56;22.50;44.00
8313;DHT22;4194;43.408;24.626;2024-03-22T11:44:22;22.80;44.00
8313;DHT22;4194;43.408;24.626;2024-03-22T11:46:51;22.90;44.00
8313;DHT22;4194;43.408;24.626;2024-03-22T11:49:17;22.50;44.20
8313;DHT22;4194;43.408;24.626;2024-03-22T11:51:45;22.80;43.70
8313;DHT22;4194;43.408;24.626;2024-03-22T11:54:10;22.40;43.80
8313;DHT22;4194;43.408;24.626;2024-03-22T11:56:36;22.80;44.10
8313;DHT22;4194;43.408;24.626;2024-03-22T11:59:02;23.20;43.80
8313;DHT22;4194;43.408;24.626;2024-03-22T12:01:32;23.70;43.00
8313;DHT22;4194;43.408;24.626;2024-03-22T12:03:58;23.90;42.10
8313;DHT22;4194;43.408;24.626;2024-03-22T12:06:24;24.80;41.70
8313;DHT22;4194;43.408;24.626;2024-03-22T12:08:50;25.80;40.60
8313;DHT22;4194;43.408;24.626;2024-03-22T12:11:16;26.40;39.40
8313;DHT22;4194;43.408;24.626;2024-03-22T12:13:42;24.80;39.60
8313;DHT22;4194;43.408;24.626;2024-03-22T12:16:07;23.70;41.00
8313;DHT22;4194;43.408;24.626;2024-03-22T12:18:33;22.60;42.60
8313;DHT22;4194;43.408;24.626;2024-03-22T12:21:00;23.70;43.00
8313;DHT22;4194;43.408;24.626;2024-03-22T12:23:25;25.20;41.00
8313;DHT22;4194;43.408;24.626;2024-03-22T12:25:51;27.30;39.70
8313;DHT22;4194;43.408;24.626;2024-03-22T12:28:18;26.80;39.10
8313;DHT22;4194;43.408;24.626;2024-03-22T12:30:43;27.80;37.80
8313;DHT22;4194;43.408;24.626;2024-03-22T12:33:10;28.70;36.60
8313;DHT22;4194;43.408;24.626;2024-03-22T12:35:39;29.00;36.40
8313;DHT22;4194;43.408;24.626;2024-03-22T12:38:06;29.30;35.30
8313;DHT22;4194;43.408;24.626;2024-03-22T12:40:32;31.00;35.00
8313;DHT22;4194;43.408;24.626;2024-03-22T12:42:59;31.50;33.60
8313;DHT22;4194;43.408;24.626;2024-03-22T12:45:25;31.70;33.00
8313;DHT22;4194;43.408;24.626;2024-03-22T12:47:51;32.20;32.30
8313;DHT22;4194;43.408;24.626;2024-03-22T12:50:17;32.40;31.60
8313;DHT22;4194;43.408;24.626;2024-03-22T12:52:42;32.90;32.10
8313;DHT22;4194;43.408;24.626;2024-03-22T12:55:10;33.50;30.80
8313;DHT22;4194;43.408;24.626;2024-03-22T12:57:35;32.90;31.10
8313;DHT22;4194;43.408;24.626;2024-03-22T13:00:02;33.30;30.90
8313;DHT22;4194;43.408;24.626;2024-03-22T13:02:29;32.20;30.80
8313;DHT22;4194;43.408;24.626;2024-03-22T13:04:57;31.50;31.80
8313;DHT22;4194;43.408;24.626;2024-03-22T13:07:23;31.10;31.90
8313;DHT22;4194;43.408;24.626;2024-03-22T13:09:50;30.70;32.00
8313;DHT22;4194;43.408;24.626;2024-03-22T13:12:16;30.70;33.10
8313;DHT22;4194;43.408;24.626;2024-03-22T13:14:41;31.50;33.60
8313;DHT22;4194;43.408;24.626;2024-03-22T13:17:08;32.70;31.60
8313;DHT22;4194;43.408;24.626;2024-03-22T13:19:34;33.00;31.50
8313;DHT22;4194;43.408;24.626;2024-03-22T13:22:00;33.80;31.00
8313;DHT22;4194;43.408;24.626;2024-03-22T13:24:26;33.50;30.20
8313;DHT22;4194;43.408;24.626;2024-03-22T13:26:51;34.90;29.90
8313;DHT22;4194;43.408;24.626;2024-03-22T13:29:17;35.60;29.40
8313;DHT22;4194;43.408;24.626;2024-03-22T13:31:43;34.50;30.00
8313;DHT22;4194;43.408;24.626;2024-03-22T13:34:09;35.50;29.20
8313;DHT22;4194;43.408;24.626;2024-03-22T13:36:34;36.10;29.10
8313;DHT22;4194;43.408;24.626;2024-03-22T13:39:03;36.40;28.30
8313;DHT22;4194;43.408;24.626;2024-03-22T13:41:29;35.70;28.60
8313;DHT22;4194;43.408;24.626;2024-03-22T13:43:55;36.70;28.00
8313;DHT22;4194;43.408;24.626;2024-03-22T13:46:21;36.80;28.00
8313;DHT22;4194;43.408;24.626;2024-03-22T13:48:47;37.50;27.80
8313;DHT22;4194;43.408;24.626;2024-03-22T13:51:13;37.70;27.80
8313;DHT22;4194;43.408;24.626;2024-03-22T13:53:39;38.10;27.50
8313;DHT22;4194;43.408;24.626;2024-03-22T13:56:06;38.50;27.10
8313;DHT22;4194;43.408;24.626;2024-03-22T13:58:32;38.70;26.90
8313;DHT22;4194;43.408;24.626;2024-03-22T14:00:57;38.00;27.40
8313;DHT22;4194;43.408;24.626;2024-03-22T14:03:23;37.10;27.30
8313;DHT22;4194;43.408;24.626;2024-03-22T14:05:49;38.10;27.50
8313;DHT22;4194;43.408;24.626;2024-03-22T14:08:14;38.10;27.10
8313;DHT22;4194;43.408;24.626;2024-03-22T14:10:40;38.00;27.00
8313;DHT22;4194;43.408;24.626;2024-03-22T14:13:06;36.80;27.40
8313;DHT22;4194;43.408;24.626;2024-03-22T14:15:33;36.40;27.40
8313;DHT22;4194;43.408;24.626;2024-03-22T14:18:01;36.90;27.50
8313;DHT22;4194;43.408;24.626;2024-03-22T14:20:26;35.60;27.90
8313;DHT22;4194;43.408;24.626;2024-03-22T14:22:52;36.30;28.70
8313;DHT22;4194;43.408;24.626;2024-03-22T14:25:18;36.10;27.40
8313;DHT22;4194;43.408;24.626;2024-03-22T14:27:44;37.40;27.10
8313;DHT22;4194;43.408;24.626;2024-03-22T14:30:12;37.70;26.50
8313;DHT22;4194;43.408;24.626;2024-03-22T14:32:39;37.40;27.20
8313;DHT22;4194;43.408;24.626;2024-03-22T14:35:06;37.80;27.20
8313;DHT22;4194;43.408;24.626;2024-03-22T14:37:32;37.50;26.90
8313;DHT22;4194;43.408;24.626;2024-03-22T14:39:57;37.20;26.90
8313;DHT22;4194;43.408;24.626;2024-03-22T14:42:23;37.60;27.20
8313;DHT22;4194;43.408;24.626;2024-03-22T14:44:49;38.30;26.80
8313;DHT22;4194;43.408;24.626;2024-03-22T14:47:15;39.00;26.80
8313;DHT22;4194;43.408;24.626;2024-03-22T14:49:41;38.90;26.60
8313;DHT22;4194;43.408;24.626;2024-03-22T14:52:07;38.00;26.70
8313;DHT22;4194;43.408;24.626;2024-03-22T14:54:33;37.60;27.00
8313;DHT22;4194;43.408;24.626;2024-03-22T14:56:59;37.70;26.80
8313;DHT22;4194;43.408;24.626;2024-03-22T14:59:31;38.10;27.30
8313;DHT22;4194;43.408;24.626;2024-03-22T15:01:57;37.60;26.70
8313;DHT22;4194;43.408;24.626;2024-03-22T15:04:22;36.50;26.80
8313;DHT22;4194;43.408;24.626;2024-03-22T15:06:49;36.10;27.50
8313;DHT22;4194;43.408;24.626;2024-03-22T15:09:17;36.50;27.30
8313;DHT22;4194;43.408;24.626;2024-03-22T15:11:44;36.30;27.10
8313;DHT22;4194;43.408;24.626;2024-03-22T15:14:10;36.40;26.70
8313;DHT22;4194;43.408;24.626;2024-03-22T15:16:36;36.30;26.90
8313;DHT22;4194;43.408;24.626;2024-03-22T15:19:02;36.20;27.00
8313;DHT22;4194;43.408;24.626;2024-03-22T15:21:28;35.90;27.50
8313;DHT22;4194;43.408;24.626;2024-03-22T15:23:54;35.40;27.50
8313;DHT22;4194;43.408;24.626;2024-03-22T15:26:19;34.40;27.90
8313;DHT22;4194;43.408;24.626;2024-03-22T15:28:47;32.10;28.80
8313;DHT22;4194;43.408;24.626;2024-03-22T15:31:14;28.90;31.50
8313;DHT22;4194;43.408;24.626;2024-03-22T15:33:39;26.20;34.00
8313;DHT22;4194;43.408;24.626;2024-03-22T15:36:05;23.40;37.50
8313;DHT22;4194;43.408;24.626;2024-03-22T15:38:31;21.80;39.00
8313;DHT22;4194;43.408;24.626;2024-03-22T15:40:57;20.40;41.10
8313;DHT22;4194;43.408;24.626;2024-03-22T15:43:22;19.20;44.10
8313;DHT22;4194;43.408;24.626;2024-03-22T15:45:48;18.20;44.40